Time;durP1;ratioP1;P1;durP2;ratioP2;P2;SDS_P1;SDS_P2;PMS_P1;PMS_P2;Temp;Humidity;BMP_temperature;BMP_pressure;BME280_temperature;BME280_humidity;BME280_pressure;Samples;Min_cycle;Max_cycle;Signal;HPM_P1;HPM_P2
2023/01/08 00:00:11;;;;;;;20.30;12.97;;;4.20;39.20;;;;;;5021071;28;21018;-64
2023/01/08 00:02:39;;;;;;;20.47;13.83;;;4.20;39.10;;;;;;5025177;28;20918;-64
2023/01/08 00:05:06;;;;;;;19.63;13.53;;;4.10;39.10;;;;;;5020334;28;20479;-64
2023/01/08 00:07:33;;;;;;;22.07;15.33;;;4.10;39.10;;;;;;5024043;28;20461;-64
2023/01/08 00:10:00;;;;;;;21.70;16.07;;;4.10;39.20;;;;;;5025170;28;20473;-64
2023/01/08 00:12:27;;;;;;;22.40;17.43;;;4.10;39.20;;;;;;5018629;28;20463;-64
2023/01/08 00:14:54;;;;;;;23.53;18.73;;;4.10;39.20;;;;;;5023839;28;20479;-64
2023/01/08 00:17:20;;;;;;;29.10;16.10;;;4.00;39.10;;;;;;5024925;28;20505;-64
2023/01/08 00:19:48;;;;;;;23.10;15.80;;;4.00;39.10;;;;;;5020268;28;20471;-64
2023/01/08 00:22:15;;;;;;;20.87;15.13;;;4.00;39.30;;;;;;5025456;28;20459;-64
2023/01/08 00:24:42;;;;;;;23.23;14.33;;;4.00;39.30;;;;;;5017577;28;20486;-64
2023/01/08 00:27:09;;;;;;;19.53;13.30;;;4.00;39.30;;;;;;5021967;28;20812;-64
2023/01/08 00:29:36;;;;;;;19.97;13.37;;;4.00;39.20;;;;;;5022648;28;20994;-65
2023/01/08 00:32:03;;;;;;;23.10;15.43;;;4.00;39.10;;;;;;5021836;28;20487;-64
2023/01/08 00:34:30;;;;;;;23.17;14.90;;;3.90;39.20;;;;;;5026517;28;20465;-64
2023/01/08 00:36:58;;;;;;;24.10;14.67;;;3.90;39.30;;;;;;5018810;28;20474;-64
2023/01/08 00:39:25;;;;;;;22.20;14.23;;;3.90;39.50;;;;;;5026326;28;20481;-64
2023/01/08 00:41:51;;;;;;;24.97;16.27;;;3.90;39.60;;;;;;5020066;28;21186;-64
2023/01/08 00:44:18;;;;;;;22.70;14.40;;;3.90;39.70;;;;;;5024874;28;20459;-64
2023/01/08 00:46:45;;;;;;;24.90;15.13;;;3.90;39.90;;;;;;5017998;28;20522;-64
2023/01/08 00:49:11;;;;;;;25.20;15.17;;;3.90;40.00;;;;;;5020414;28;20747;-64
2023/01/08 00:51:38;;;;;;;19.90;13.40;;;3.90;40.40;;;;;;5019036;28;20456;-63
2023/01/08 00:54:06;;;;;;;21.33;13.13;;;4.00;40.60;;;;;;5019366;28;20566;-64
2023/01/08 00:56:33;;;;;;;19.40;13.30;;;4.00;40.50;;;;;;5026185;28;20490;-64
2023/01/08 00:59:00;;;;;;;19.10;13.60;;;3.90;40.70;;;;;;5022090;28;20463;-64
2023/01/08 01:01:27;;;;;;;21.50;13.60;;;4.10;40.70;;;;;;5024891;28;20481;-64
2023/01/08 01:03:53;;;;;;;20.70;14.00;;;4.10;40.90;;;;;;5019300;28;20466;-64
2023/01/08 01:06:20;;;;;;;20.67;14.90;;;4.10;40.80;;;;;;5021239;28;20482;-63
2023/01/08 01:08:47;;;;;;;21.80;12.97;;;4.10;40.80;;;;;;5023112;28;20458;-64
2023/01/08 01:11:19;;;;;;;18.50;12.87;;;4.10;40.50;;;;;;5020913;28;20458;-63
2023/01/08 01:13:46;;;;;;;19.87;13.27;;;4.00;40.30;;;;;;5021551;28;20958;-63
2023/01/08 01:16:12;;;;;;;19.20;12.43;;;4.00;40.40;;;;;;5021239;28;20479;-64
2023/01/08 01:18:39;;;;;;;20.80;13.37;;;4.00;40.40;;;;;;5022900;28;20872;-63
2023/01/08 01:21:11;;;;;;;19.87;13.07;;;4.00;40.40;;;;;;5023900;28;20467;-64
2023/01/08 01:23:37;;;;;;;26.33;14.80;;;3.90;40.30;;;;;;5021013;28;21079;-64
2023/01/08 01:26:04;;;;;;;26.13;15.70;;;3.90;40.40;;;;;;5023899;28;21007;-64
2023/01/08 01:28:32;;;;;;;19.80;13.60;;;3.90;40.40;;;;;;5023207;28;20463;-64
2023/01/08 01:31:02;;;;;;;21.50;12.70;;;3.80;40.80;;;;;;5016594;28;20486;-64
2023/01/08 01:33:29;;;;;;;22.80;14.70;;;3.80;40.90;;;;;;5022585;28;20540;-64
2023/01/08 01:36:01;;;;;;;21.53;14.27;;;3.70;41.00;;;;;;5024016;28;20500;-63
2023/01/08 01:38:28;;;;;;;29.50;20.67;;;3.70;41.20;;;;;;5020355;28;20887;-63
2023/01/08 01:40:55;;;;;;;26.13;17.47;;;3.70;41.40;;;;;;5021058;28;20948;-64
2023/01/08 01:43:36;;;;;;;21.30;14.50;;;3.70;42.00;;;;;;5024606;28;20463;-64
2023/01/08 01:46:03;;;;;;;27.93;16.53;;;3.80;42.20;;;;;;5023176;28;20483;-64
2023/01/08 01:48:30;;;;;;;78.93;54.70;;;3.80;42.00;;;;;;5024545;28;20463;-64
2023/01/08 01:50:56;;;;;;;24.53;16.00;;;3.80;42.00;;;;;;5022729;28;20468;-64
2023/01/08 01:53:25;;;;;;;23.20;13.67;;;3.80;41.90;;;;;;5022514;28;20459;-63
2023/01/08 01:55:53;;;;;;;22.50;14.60;;;3.80;41.70;;;;;;5021794;28;20498;-63
2023/01/08 01:58:24;;;;;;;22.13;15.60;;;3.80;41.70;;;;;;5021283;28;20498;-64
2023/01/08 02:00:53;;;;;;;24.00;14.90;;;3.70;41.70;;;;;;5023717;28;21078;-63
2023/01/08 02:03:22;;;;;;;21.43;14.03;;;3.80;41.60;;;;;;5017221;28;20471;-64
2023/01/08 02:05:55;;;;;;;35.47;25.83;;;3.70;41.50;;;;;;5022331;28;21328;-64
2023/01/08 02:08:29;;;;;;;30.53;22.07;;;3.80;41.50;;;;;;5025951;28;20453;-64
2023/01/08 02:11:02;;;;;;;26.90;17.27;;;3.80;41.60;;;;;;5023744;28;20454;-64
2023/01/08 02:13:34;;;;;;;22.43;14.73;;;3.80;41.60;;;;;;5022203;28;20463;-64
2023/01/08 02:16:08;;;;;;;19.23;14.03;;;3.90;41.80;;;;;;5019505;28;20489;-64
2023/01/08 02:18:41;;;;;;;20.23;12.63;;;4.00;41.80;;;;;;5020958;28;20995;-64
2023/01/08 02:21:13;;;;;;;16.83;12.83;;;4.00;41.90;;;;;;5019800;28;20479;-64
2023/01/08 02:23:48;;;;;;;21.50;13.30;;;4.00;41.70;;;;;;5023773;28;20490;-64
2023/01/08 02:26:23;;;;;;;19.93;14.33;;;4.00;41.90;;;;;;5021793;28;20482;-64
2023/01/08 02:28:56;;;;;;;19.70;13.10;;;4.00;41.80;;;;;;5020726;28;20459;-64
2023/01/08 02:31:24;;;;;;;20.73;13.83;;;4.00;41.80;;;;;;5022978;28;20479;-64
2023/01/08 02:33:51;;;;;;;21.07;13.50;;;4.00;41.50;;;;;;5015656;28;20531;-64
2023/01/08 02:36:34;;;;;;;20.37;14.37;;;3.90;41.80;;;;;;5015092;28;20487;-64
2023/01/08 02:39:15;;;;;;;20.37;12.20;;;3.90;42.00;;;;;;5020127;28;20481;-64
2023/01/08 02:42:04;;;;;;;19.90;13.57;;;4.00;41.90;;;;;;5022406;28;20463;-64
2023/01/08 02:44:40;;;;;;;18.10;12.67;;;4.00;42.10;;;;;;5021353;28;20478;-64
2023/01/08 02:47:11;;;;;;;17.60;13.10;;;3.90;42.20;;;;;;5014085;28;20494;-64
2023/01/08 02:49:42;;;;;;;18.37;13.07;;;4.00;42.30;;;;;;5019712;28;20460;-64
2023/01/08 02:52:11;;;;;;;23.17;14.23;;;4.00;42.50;;;;;;5021335;28;20455;-64
2023/01/08 02:54:41;;;;;;;24.10;15.43;;;4.10;42.60;;;;;;5023268;28;20459;-64
2023/01/08 02:57:13;;;;;;;18.80;12.97;;;4.20;42.80;;;;;;5034306;22;20452;-59
2023/01/08 02:59:42;;;;;;;20.33;13.57;;;4.20;42.60;;;;;;5059774;28;20945;-58
2023/01/08 03:02:10;;;;;;;18.83;13.90;;;4.20;42.50;;;;;;5061032;28;20511;-58
2023/01/08 03:04:44;;;;;;;17.80;13.30;;;4.20;42.40;;;;;;5061890;28;20610;-59
2023/01/08 03:07:11;;;;;;;16.80;12.33;;;4.30;42.20;;;;;;5062016;28;20477;-59
2023/01/08 03:09:38;;;;;;;15.47;10.50;;;4.30;41.80;;;;;;5043475;28;23065;-59
2023/01/08 03:12:13;;;;;;;15.57;9.97;;;4.40;41.60;;;;;;5051486;28;20489;-59
2023/01/08 03:14:44;;;;;;;12.80;8.20;;;4.40;41.30;;;;;;5044044;28;20449;-61
2023/01/08 03:17:18;;;;;;;13.50;8.50;;;4.40;41.10;;;;;;5046033;28;20482;-60
2023/01/08 03:19:50;;;;;;;14.20;7.67;;;4.40;40.80;;;;;;5046474;28;20461;-59
2023/01/08 03:22:18;;;;;;;12.00;8.90;;;4.40;40.40;;;;;;5044417;28;20473;-59
2023/01/08 03:24:49;;;;;;;12.23;8.60;;;4.40;40.50;;;;;;5048299;28;20462;-59
2023/01/08 03:27:24;;;;;;;11.70;7.97;;;4.40;40.60;;;;;;5043916;28;20482;-60
2023/01/08 03:29:54;;;;;;;13.23;9.10;;;4.30;40.60;;;;;;5049098;28;20476;-59
2023/01/08 03:32:23;;;;;;;13.40;8.53;;;4.30;40.50;;;;;;5049236;28;20466;-59
2023/01/08 03:34:54;;;;;;;12.50;8.67;;;4.30;40.60;;;;;;5044249;28;20461;-59
2023/01/08 03:37:25;;;;;;;13.90;9.53;;;4.30;40.60;;;;;;5046091;28;20580;-59
2023/01/08 03:39:57;;;;;;;13.10;8.43;;;4.30;41.20;;;;;;5050304;28;20826;-59
2023/01/08 03:42:26;;;;;;;16.27;9.07;;;4.30;40.30;;;;;;5048652;28;20477;-61
2023/01/08 03:44:53;;;;;;;11.60;7.97;;;4.30;40.10;;;;;;5049705;28;20473;-59
2023/01/08 03:47:22;;;;;;;14.63;8.73;;;4.30;40.00;;;;;;5050604;28;20862;-59
2023/01/08 03:49:50;;;;;;;12.73;8.23;;;4.30;39.90;;;;;;5049875;28;20454;-60
2023/01/08 03:52:24;;;;;;;12.30;8.23;;;4.30;39.80;;;;;;5048462;28;20461;-59
2023/01/08 03:54:51;;;;;;;10.50;7.40;;;4.20;39.70;;;;;;5052157;28;20454;-59
2023/01/08 03:57:18;;;;;;;11.87;7.67;;;4.20;39.50;;;;;;5051552;28;20489;-59
2023/01/08 03:59:47;;;;;;;13.40;8.10;;;4.30;39.50;;;;;;5043359;28;20574;-59
2023/01/08 04:02:14;;;;;;;11.87;7.40;;;4.30;39.50;;;;;;5046500;28;20485;-59
2023/01/08 04:04:41;;;;;;;11.73;6.97;;;4.30;39.40;;;;;;5052594;28;20533;-59
2023/01/08 04:07:09;;;;;;;11.33;7.47;;;4.30;39.30;;;;;;5048556;28;20520;-60
2023/01/08 04:09:36;;;;;;;11.40;6.93;;;4.30;39.20;;;;;;5048584;28;20458;-59
2023/01/08 04:12:04;;;;;;;10.37;7.07;;;4.30;39.00;;;;;;5049460;28;20472;-60
2023/01/08 04:14:31;;;;;;;11.27;6.80;;;4.20;39.30;;;;;;5045883;28;20472;-59
2023/01/08 04:16:59;;;;;;;11.87;7.97;;;4.20;38.60;;;;;;5048799;28;20465;-59
2023/01/08 04:19:26;;;;;;;12.33;7.97;;;4.20;38.50;;;;;;5049182;28;21004;-59
2023/01/08 04:21:53;;;;;;;11.70;7.30;;;4.20;38.60;;;;;;5046326;28;20466;-59
2023/01/08 04:24:20;;;;;;;11.97;8.10;;;4.20;38.60;;;;;;5048631;28;20471;-60
2023/01/08 04:26:47;;;;;;;10.87;7.43;;;4.10;38.70;;;;;;5047367;28;20454;-59
2023/01/08 04:29:14;;;;;;;13.93;8.23;;;4.10;38.70;;;;;;5042036;28;20462;-59
2023/01/08 04:31:40;;;;;;;10.90;7.63;;;4.10;38.70;;;;;;5046176;28;20821;-59
2023/01/08 04:34:10;;;;;;;17.50;8.50;;;4.10;38.70;;;;;;5039864;28;20954;-59
2023/01/08 04:36:36;;;;;;;12.37;7.53;;;4.10;38.60;;;;;;5040726;28;20462;-59
2023/01/08 04:39:03;;;;;;;10.00;7.37;;;4.10;38.60;;;;;;5054670;28;21035;-59
2023/01/08 04:41:30;;;;;;;11.33;7.20;;;4.10;38.60;;;;;;5046113;28;20460;-59
2023/01/08 04:43:57;;;;;;;12.30;7.33;;;4.10;38.60;;;;;;5052940;28;20457;-59
2023/01/08 04:46:24;;;;;;;12.03;7.97;;;4.10;38.70;;;;;;5047406;28;20560;-60
2023/01/08 04:48:51;;;;;;;9.80;6.80;;;4.10;38.60;;;;;;5053302;28;20477;-59
2023/01/08 04:51:20;;;;;;;11.23;7.50;;;4.10;38.60;;;;;;5046546;28;20549;-60
2023/01/08 04:53:47;;;;;;;10.70;7.30;;;4.20;38.70;;;;;;5049648;28;20998;-58
2023/01/08 04:56:14;;;;;;;11.37;8.33;;;4.20;38.70;;;;;;5049534;28;20484;-60
2023/01/08 04:58:40;;;;;;;10.97;7.77;;;4.20;38.70;;;;;;5047089;28;20496;-59
2023/01/08 05:01:12;;;;;;;11.60;7.00;;;4.20;38.60;;;;;;5047647;28;20474;-59
2023/01/08 05:03:39;;;;;;;11.53;7.20;;;4.20;38.60;;;;;;5044928;28;20480;-59
2023/01/08 05:06:06;;;;;;;12.47;7.40;;;4.20;38.60;;;;;;5043111;28;20466;-59
2023/01/08 05:08:34;;;;;;;11.07;7.47;;;4.20;38.60;;;;;;5046936;28;20477;-59
2023/01/08 05:11:02;;;;;;;12.97;7.80;;;4.20;38.60;;;;;;5045522;28;20535;-59
2023/01/08 05:13:29;;;;;;;10.83;7.13;;;4.10;38.60;;;;;;5046952;28;20809;-59
2023/01/08 05:15:59;;;;;;;10.20;7.40;;;4.20;38.60;;;;;;5041947;28;20542;-59
2023/01/08 05:18:26;;;;;;;11.27;7.60;;;4.20;38.70;;;;;;5046390;28;20487;-60
2023/01/08 05:20:52;;;;;;;11.97;7.80;;;4.20;38.60;;;;;;5046137;28;20457;-59
2023/01/08 05:23:19;;;;;;;10.37;6.97;;;4.20;38.60;;;;;;5042335;28;20453;-60
2023/01/08 05:25:47;;;;;;;13.03;8.20;;;4.20;38.70;;;;;;5047061;28;20469;-59
2023/01/08 05:28:14;;;;;;;10.60;7.50;;;4.20;38.60;;;;;;5050052;28;20486;-59
2023/01/08 05:30:41;;;;;;;11.50;7.00;;;4.20;38.70;;;;;;5050837;28;20564;-60
2023/01/08 05:33:07;;;;;;;13.80;7.60;;;4.20;38.70;;;;;;5048718;28;20465;-60
2023/01/08 05:35:34;;;;;;;11.10;7.60;;;4.20;38.60;;;;;;5044349;28;20468;-59
2023/01/08 05:38:01;;;;;;;13.30;7.07;;;4.20;38.60;;;;;;5048356;28;20535;-58
2023/01/08 05:40:28;;;;;;;11.87;7.80;;;4.20;38.60;;;;;;5043865;28;20462;-59
2023/01/08 05:42:58;;;;;;;11.30;7.50;;;4.20;38.60;;;;;;5046130;28;20459;-59
2023/01/08 05:45:25;;;;;;;11.83;7.83;;;4.20;38.60;;;;;;5047238;28;20469;-59
2023/01/08 05:47:52;;;;;;;11.47;7.03;;;4.20;38.50;;;;;;5045728;28;20593;-59
2023/01/08 05:50:19;;;;;;;11.73;7.47;;;4.20;38.50;;;;;;5051022;28;20453;-59
2023/01/08 05:52:45;;;;;;;13.83;7.33;;;4.20;38.50;;;;;;5049343;28;20470;-59
2023/01/08 05:55:12;;;;;;;12.30;7.10;;;4.20;38.50;;;;;;5045264;28;20458;-59
2023/01/08 05:57:39;;;;;;;11.33;7.73;;;4.20;38.50;;;;;;5046286;28;20497;-59
2023/01/08 06:00:09;;;;;;;11.57;7.40;;;4.20;38.50;;;;;;5049358;28;20477;-59
2023/01/08 06:02:36;;;;;;;13.80;8.73;;;4.20;38.50;;;;;;5044735;28;20486;-58
2023/01/08 06:05:03;;;;;;;11.73;7.60;;;4.20;38.50;;;;;;5046189;28;20462;-58
2023/01/08 06:07:30;;;;;;;10.90;7.40;;;4.20;38.50;;;;;;5045514;28;20486;-58
2023/01/08 06:09:57;;;;;;;16.50;9.67;;;4.20;38.70;;;;;;5047824;28;20466;-58
2023/01/08 06:12:24;;;;;;;13.83;8.77;;;4.20;38.80;;;;;;5045736;28;20466;-59
2023/01/08 06:14:51;;;;;;;12.63;8.90;;;4.20;38.80;;;;;;5040969;28;20537;-60
2023/01/08 06:17:19;;;;;;;12.90;8.47;;;4.30;38.90;;;;;;5046684;28;21013;-59
2023/01/08 06:19:47;;;;;;;13.43;8.97;;;4.30;38.90;;;;;;5049466;28;20486;-60
2023/01/08 06:22:13;;;;;;;16.37;10.90;;;4.30;39.00;;;;;;5045958;28;20466;-60
2023/01/08 06:24:40;;;;;;;15.77;11.03;;;4.30;39.10;;;;;;5045091;28;20561;-61
2023/01/08 06:27:07;;;;;;;17.80;12.67;;;4.40;39.10;;;;;;5041664;28;20483;-58
2023/01/08 06:29:34;;;;;;;18.83;12.30;;;4.40;39.30;;;;;;5043733;28;20454;-60
2023/01/08 06:32:00;;;;;;;15.70;10.17;;;4.40;39.20;;;;;;5043629;28;20466;-59
2023/01/08 06:34:28;;;;;;;16.50;9.87;;;4.50;39.40;;;;;;5044402;28;20450;-59
2023/01/08 06:36:55;;;;;;;15.53;10.10;;;4.50;39.20;;;;;;5045528;28;20461;-59
2023/01/08 06:39:22;;;;;;;16.87;11.90;;;4.50;39.40;;;;;;5053150;28;20769;-60
2023/01/08 06:41:49;;;;;;;17.27;11.23;;;4.50;39.50;;;;;;5046608;28;20469;-59
2023/01/08 06:44:15;;;;;;;20.50;13.43;;;4.50;39.50;;;;;;5043413;28;20469;-59
2023/01/08 06:46:42;;;;;;;19.23;13.60;;;4.50;39.50;;;;;;5044027;28;20480;-60
2023/01/08 06:49:10;;;;;;;23.30;14.20;;;4.50;39.50;;;;;;5044620;28;20471;-58
2023/01/08 06:51:38;;;;;;;23.43;15.50;;;4.60;39.60;;;;;;5052656;28;20462;-61
2023/01/08 06:54:05;;;;;;;19.07;12.70;;;4.60;39.80;;;;;;5049051;28;20462;-59
2023/01/08 06:56:31;;;;;;;16.43;10.37;;;4.70;39.90;;;;;;5050417;28;20462;-59
2023/01/08 06:58:58;;;;;;;14.43;9.33;;;4.60;39.80;;;;;;5049401;28;20505;-59
2023/01/08 07:01:25;;;;;;;13.93;8.80;;;4.70;39.70;;;;;;5051965;28;21020;-59
2023/01/08 07:03:52;;;;;;;15.30;9.40;;;4.60;39.70;;;;;;5049202;28;20825;-59
2023/01/08 07:06:20;;;;;;;13.80;9.60;;;4.60;39.70;;;;;;5047678;28;20461;-59
2023/01/08 07:08:49;;;;;;;16.80;10.57;;;4.60;39.50;;;;;;5049473;28;20477;-60
2023/01/08 07:11:16;;;;;;;13.80;9.27;;;4.60;39.40;;;;;;5055187;28;20496;-60
2023/01/08 07:13:43;;;;;;;14.37;9.30;;;4.60;39.50;;;;;;5051331;28;20468;-61
2023/01/08 07:16:12;;;;;;;13.50;9.20;;;4.60;39.30;;;;;;5047454;28;21018;-59
2023/01/08 07:18:39;;;;;;;13.43;8.83;;;4.60;39.20;;;;;;5051826;28;20850;-59
2023/01/08 07:21:07;;;;;;;15.70;10.33;;;4.60;39.20;;;;;;5059407;28;20961;-59
2023/01/08 07:23:34;;;;;;;16.50;10.43;;;4.60;39.30;;;;;;5048590;28;20482;-59
2023/01/08 07:26:03;;;;;;;14.50;10.30;;;4.60;39.50;;;;;;5043882;28;20462;-60
2023/01/08 07:28:30;;;;;;;16.57;10.60;;;4.60;39.70;;;;;;5050032;28;20505;-60
2023/01/08 07:30:57;;;;;;;12.33;9.03;;;4.60;39.70;;;;;;5048369;28;20478;-60
2023/01/08 07:33:24;;;;;;;12.47;8.53;;;4.60;39.80;;;;;;5056866;28;20456;-59
2023/01/08 07:35:54;;;;;;;11.93;7.70;;;4.70;39.80;;;;;;5044107;28;20541;-59
2023/01/08 07:38:21;;;;;;;10.83;6.57;;;4.70;40.10;;;;;;5048664;28;20478;-60
2023/01/08 07:40:48;;;;;;;12.67;7.90;;;4.80;39.90;;;;;;5047660;28;20470;-60
2023/01/08 07:43:16;;;;;;;12.03;7.13;;;4.80;39.80;;;;;;5048377;28;20465;-59
2023/01/08 07:45:43;;;;;;;12.50;7.20;;;4.80;39.80;;;;;;5047900;28;20469;-59
2023/01/08 07:48:14;;;;;;;12.43;7.37;;;4.90;39.70;;;;;;5047234;28;20479;-59
2023/01/08 07:50:41;;;;;;;19.87;10.17;;;4.90;39.80;;;;;;5049393;28;20453;-59
2023/01/08 07:53:08;;;;;;;13.97;8.23;;;5.00;39.80;;;;;;5050521;28;20855;-60
2023/01/08 07:55:35;;;;;;;12.50;7.73;;;5.00;39.90;;;;;;5049489;28;20462;-60
2023/01/08 07:58:07;;;;;;;14.00;8.00;;;5.10;40.10;;;;;;5047270;28;20481;-59
2023/01/08 08:00:36;;;;;;;11.83;6.70;;;5.10;40.00;;;;;;5045092;28;20477;-60
2023/01/08 08:03:04;;;;;;;12.60;8.10;;;5.20;39.90;;;;;;5049097;28;20468;-60
2023/01/08 08:05:31;;;;;;;16.47;7.37;;;5.30;39.90;;;;;;5040672;28;20816;-61
2023/01/08 08:07:58;;;;;;;12.70;7.87;;;5.30;39.70;;;;;;5045355;28;20848;-59
2023/01/08 08:10:25;;;;;;;11.53;7.97;;;5.40;39.50;;;;;;5047471;28;20458;-61
2023/01/08 08:12:51;;;;;;;11.70;7.83;;;5.40;39.50;;;;;;5058331;28;20461;-59
2023/01/08 08:15:18;;;;;;;12.77;8.30;;;5.40;39.40;;;;;;5042406;28;20470;-60
2023/01/08 08:17:48;;;;;;;12.70;7.50;;;5.40;39.30;;;;;;5046261;28;20844;-61
2023/01/08 08:20:14;;;;;;;13.93;7.83;;;5.40;39.20;;;;;;5041943;28;20481;-61
2023/01/08 08:22:41;;;;;;;18.30;12.43;;;5.40;39.10;;;;;;5049150;28;20462;-61
2023/01/08 08:25:09;;;;;;;16.40;9.50;;;5.40;39.00;;;;;;5048002;28;20462;-61
2023/01/08 08:27:36;;;;;;;14.10;8.70;;;5.40;39.00;;;;;;5049473;28;20862;-59
2023/01/08 08:30:03;;;;;;;16.53;11.17;;;5.40;38.90;;;;;;5049152;28;20466;-62
2023/01/08 08:32:30;;;;;;;15.20;9.63;;;5.50;38.90;;;;;;5051551;28;20473;-59
2023/01/08 08:34:58;;;;;;;16.03;9.60;;;5.50;38.90;;;;;;5045886;28;20808;-58
2023/01/08 08:37:25;;;;;;;18.60;10.93;;;5.60;38.80;;;;;;5047260;28;21207;-61
2023/01/08 08:39:52;;;;;;;16.10;12.57;;;5.60;38.70;;;;;;5050134;28;20487;-59
2023/01/08 08:42:18;;;;;;;17.20;12.37;;;5.60;38.60;;;;;;5046901;28;20480;-59
2023/01/08 08:44:45;;;;;;;16.77;11.97;;;5.70;38.60;;;;;;5045110;28;20472;-59
2023/01/08 08:47:12;;;;;;;21.97;13.87;;;5.70;38.50;;;;;;5045483;28;20477;-60
2023/01/08 08:49:39;;;;;;;18.07;12.50;;;5.70;38.30;;;;;;5050493;28;20472;-60
2023/01/08 08:52:07;;;;;;;18.00;11.83;;;5.70;38.40;;;;;;5047231;28;20484;-61
2023/01/08 08:54:35;;;;;;;17.80;12.60;;;5.80;38.20;;;;;;5047998;28;20840;-60
2023/01/08 08:57:02;;;;;;;18.83;13.93;;;5.80;38.00;;;;;;5046941;28;20482;-60
2023/01/08 08:59:29;;;;;;;22.70;14.87;;;5.90;37.90;;;;;;5055791;22;20501;-62
2023/01/08 09:01:55;;;;;;;19.97;13.70;;;5.90;38.00;;;;;;5044950;28;20466;-61
2023/01/08 09:04:22;;;;;;;47.63;29.70;;;5.90;37.90;;;;;;5045550;28;20881;-61
2023/01/08 09:06:49;;;;;;;25.50;16.33;;;5.90;38.00;;;;;;5045817;28;20481;-61
2023/01/08 09:09:19;;;;;;;21.00;13.57;;;6.00;38.00;;;;;;5047370;28;20477;-61
2023/01/08 09:11:46;;;;;;;21.27;13.97;;;6.00;38.10;;;;;;5045216;28;20466;-61
2023/01/08 09:14:13;;;;;;;18.87;13.07;;;6.10;38.40;;;;;;5039957;28;20474;-63
2023/01/08 09:16:40;;;;;;;21.93;13.93;;;6.20;38.30;;;;;;5043883;28;20466;-61
2023/01/08 09:19:06;;;;;;;23.77;15.77;;;6.30;38.20;;;;;;5045649;28;20484;-61
2023/01/08 09:21:33;;;;;;;14.97;10.37;;;6.30;38.00;;;;;;5044527;28;20532;-61
2023/01/08 09:24:00;;;;;;;15.23;9.13;;;6.40;38.00;;;;;;5042903;28;20461;-63
2023/01/08 09:26:29;;;;;;;13.50;8.97;;;6.40;37.90;;;;;;5044133;28;20474;-63
2023/01/08 09:28:56;;;;;;;11.57;7.43;;;6.50;37.90;;;;;;5038386;28;20474;-61
2023/01/08 09:31:23;;;;;;;12.50;8.17;;;6.50;37.80;;;;;;5040758;28;20489;-62
2023/01/08 09:33:49;;;;;;;12.60;8.83;;;6.60;37.60;;;;;;5043497;28;20462;-61
2023/01/08 09:36:16;;;;;;;15.20;8.47;;;6.60;37.60;;;;;;5043396;28;20481;-61
2023/01/08 09:38:43;;;;;;;12.00;7.57;;;6.60;37.50;;;;;;5042705;28;20481;-63
2023/01/08 09:41:16;;;;;;;15.33;9.30;;;6.70;37.30;;;;;;5042518;28;20492;-63
2023/01/08 09:43:47;;;;;;;13.43;8.43;;;6.70;37.40;;;;;;5045153;28;20466;-61
2023/01/08 09:46:15;;;;;;;11.50;8.00;;;6.70;37.30;;;;;;5045645;28;20462;-61
2023/01/08 09:48:42;;;;;;;13.83;8.67;;;6.70;37.40;;;;;;5046334;28;21193;-61
2023/01/08 09:51:12;;;;;;;17.93;10.57;;;6.70;37.50;;;;;;5044764;28;20820;-61
2023/01/08 09:53:39;;;;;;;16.20;12.70;;;6.80;37.50;;;;;;5043196;28;20465;-61
2023/01/08 09:56:12;;;;;;;15.90;13.00;;;6.80;37.50;;;;;;5044664;28;21115;-61
2023/01/08 09:58:43;;;;;;;14.33;10.27;;;6.80;37.60;;;;;;5045453;28;20521;-61
2023/01/08 10:01:13;;;;;;;17.17;10.60;;;6.90;37.60;;;;;;5046118;28;20509;-61
2023/01/08 10:03:43;;;;;;;13.10;9.47;;;6.90;37.60;;;;;;5046180;28;20453;-61
2023/01/08 10:06:11;;;;;;;14.90;11.03;;;7.00;37.40;;;;;;5044320;28;20458;-61
2023/01/08 10:08:38;;;;;;;14.70;10.20;;;7.10;37.50;;;;;;5042017;28;20482;-61
2023/01/08 10:11:06;;;;;;;16.87;10.20;;;7.10;37.50;;;;;;5044950;28;20462;-61
2023/01/08 10:13:34;;;;;;;12.93;9.30;;;7.20;37.50;;;;;;5036987;28;20457;-67
2023/01/08 10:16:03;;;;;;;13.97;9.57;;;7.30;37.40;;;;;;5044002;28;20466;-73
2023/01/08 10:18:34;;;;;;;15.20;9.93;;;7.30;37.20;;;;;;5038624;28;20564;-67
2023/01/08 10:21:00;;;;;;;12.80;9.47;;;7.30;37.20;;;;;;5040978;28;20858;-66
2023/01/08 10:23:27;;;;;;;12.23;9.10;;;7.40;37.00;;;;;;5043243;28;20462;-71
2023/01/08 10:25:56;;;;;;;14.87;10.87;;;7.40;36.90;;;;;;5040032;28;20556;-65
2023/01/08 10:28:25;;;;;;;11.87;8.37;;;7.50;37.10;;;;;;5041711;28;20485;-66
2023/01/08 10:30:53;;;;;;;14.40;8.93;;;7.50;37.10;;;;;;5039017;28;20470;-65
2023/01/08 10:33:24;;;;;;;13.37;8.80;;;7.60;37.30;;;;;;5038420;28;20989;-65
2023/01/08 10:35:57;;;;;;;12.20;8.57;;;7.60;37.40;;;;;;5038193;28;20482;-65
2023/01/08 10:38:28;;;;;;;14.43;9.33;;;7.70;37.60;;;;;;5039982;28;21031;-65
2023/01/08 10:40:56;;;;;;;16.97;10.47;;;7.70;37.60;;;;;;5038581;28;20496;-65
2023/01/08 10:43:27;;;;;;;19.13;12.23;;;7.70;37.70;;;;;;5041526;28;20520;-63
2023/01/08 10:45:58;;;;;;;16.90;10.50;;;7.80;38.00;;;;;;5040300;28;20923;-66
2023/01/08 10:48:30;;;;;;;35.10;21.13;;;7.80;38.00;;;;;;5043995;28;20552;-65
2023/01/08 10:51:07;;;;;;;13.07;8.50;;;7.80;38.00;;;;;;5043618;28;20458;-65
2023/01/08 10:53:34;;;;;;;10.37;7.63;;;7.80;38.50;;;;;;5042860;28;20458;-66
2023/01/08 10:56:03;;;;;;;9.50;6.07;;;7.80;38.50;;;;;;5037197;28;20467;-65
2023/01/08 10:58:40;;;;;;;9.60;6.20;;;7.80;38.60;;;;;;5038184;28;20517;-67
2023/01/08 11:01:11;;;;;;;10.93;7.27;;;7.90;38.80;;;;;;5043038;28;20486;-70
2023/01/08 11:03:38;;;;;;;10.07;5.97;;;7.90;39.00;;;;;;5042935;28;20458;-68
2023/01/08 11:06:13;;;;;;;10.23;6.83;;;8.00;39.00;;;;;;5042989;28;20554;-66
2023/01/08 11:08:49;;;;;;;11.40;6.30;;;7.90;39.10;;;;;;5040527;28;20531;-65
2023/01/08 11:11:15;;;;;;;9.17;5.93;;;8.00;39.10;;;;;;5044299;28;20454;-66
2023/01/08 11:13:57;;;;;;;9.30;6.10;;;8.00;39.40;;;;;;5041670;28;20462;-65
2023/01/08 11:16:32;;;;;;;10.07;6.07;;;8.00;39.80;;;;;;5038534;28;20458;-66
2023/01/08 11:18:59;;;;;;;9.70;6.10;;;8.00;39.70;;;;;;5035354;28;20497;-63
2023/01/08 11:21:30;;;;;;;9.37;5.67;;;8.10;39.90;;;;;;5041501;28;20473;-66
2023/01/08 11:24:20;;;;;;;10.90;5.77;;;8.10;40.00;;;;;;5041706;28;20553;-64
2023/01/08 11:26:51;;;;;;;9.10;5.10;;;8.10;40.00;;;;;;5041012;28;20485;-64
2023/01/08 11:29:23;;;;;;;9.07;4.60;;;8.20;39.80;;;;;;5038446;28;20488;-61
2023/01/08 11:31:54;;;;;;;12.13;5.87;;;8.20;39.70;;;;;;5036905;28;20981;-65
2023/01/08 11:34:26;;;;;;;8.40;4.30;;;8.20;39.70;;;;;;5045000;28;20465;-67
2023/01/08 11:36:59;;;;;;;7.10;4.30;;;8.30;39.60;;;;;;5047203;28;20458;-67
2023/01/08 11:39:25;;;;;;;8.23;5.33;;;8.40;39.40;;;;;;5044280;28;20485;-66
2023/01/08 11:42:09;;;;;;;9.20;4.50;;;8.40;39.30;;;;;;5046694;28;20473;-61
2023/01/08 11:44:45;;;;;;;7.67;5.50;;;8.50;39.20;;;;;;5044815;28;20458;-61
2023/01/08 11:47:20;;;;;;;10.40;6.00;;;8.60;39.00;;;;;;5047726;28;20461;-61
2023/01/08 11:50:12;;;;;;;8.47;5.47;;;8.60;38.80;;;;;;5040685;28;20453;-65
2023/01/08 11:52:52;;;;;;;9.00;5.90;;;8.70;38.90;;;;;;5042561;28;20461;-63
2023/01/08 11:55:30;;;;;;;10.57;6.70;;;8.70;38.50;;;;;;5044763;28;20476;-65
2023/01/08 11:58:13;;;;;;;17.60;8.70;;;8.80;38.50;;;;;;5035014;28;20493;-68
2023/01/08 12:01:10;;;;;;;48.53;26.60;;;8.80;38.30;;;;;;5040361;28;20470;-67
2023/01/08 12:03:42;;;;;;;11.30;7.20;;;8.80;38.30;;;;;;5040248;28;20470;-71
2023/01/08 12:06:19;;;;;;;8.57;5.73;;;8.80;38.00;;;;;;5044802;28;20458;-63
2023/01/08 12:08:54;;;;;;;7.20;4.23;;;8.90;38.10;;;;;;5040614;28;20891;-72
2023/01/08 12:11:26;;;;;;;7.27;4.30;;;8.80;37.80;;;;;;5042720;28;20450;-74
2023/01/08 12:14:06;;;;;;;6.73;4.30;;;8.90;37.70;;;;;;5047023;28;20472;-69
2023/01/08 12:16:47;;;;;;;6.27;3.40;;;8.90;37.80;;;;;;5044729;28;20458;-70
2023/01/08 12:19:23;;;;;;;8.73;3.73;;;8.90;37.60;;;;;;5044531;28;20483;-68
2023/01/08 12:22:04;;;;;;;5.90;3.07;;;8.90;37.60;;;;;;5046581;28;20473;-71
2023/01/08 12:25:07;;;;;;;6.80;3.63;;;8.90;37.60;;;;;;5045878;28;20461;-69
2023/01/08 12:27:43;;;;;;;5.70;2.83;;;8.90;37.60;;;;;;5004024;28;20604;-71
2023/01/08 12:30:21;;;;;;;6.13;3.43;;;8.90;37.40;;;;;;5046277;28;20465;-71
2023/01/08 12:32:54;;;;;;;5.97;3.00;;;8.90;37.50;;;;;;5044142;28;20481;-69
2023/01/08 12:35:25;;;;;;;5.80;3.13;;;8.90;37.40;;;;;;5044777;28;20992;-69
2023/01/08 12:37:57;;;;;;;6.50;3.13;;;8.90;37.40;;;;;;5041973;28;20565;-70
2023/01/08 12:40:31;;;;;;;5.73;3.40;;;9.00;37.20;;;;;;5050539;28;20463;-69
2023/01/08 12:43:00;;;;;;;10.20;4.90;;;9.00;37.10;;;;;;5045251;28;20467;-67
2023/01/08 12:45:30;;;;;;;8.57;4.57;;;9.00;37.20;;;;;;5046935;28;20468;-69
2023/01/08 12:48:02;;;;;;;7.03;3.80;;;9.10;37.40;;;;;;5043664;28;20486;-68
2023/01/08 12:50:42;;;;;;;6.93;3.23;;;9.10;37.20;;;;;;5047834;28;20827;-70
2023/01/08 12:53:18;;;;;;;7.57;3.63;;;9.20;37.20;;;;;;5043290;28;20485;-66